Time;durP1;ratioP1;P1;durP2;ratioP2;P2;SDS_P1;SDS_P2;PMS_P1;PMS_P2;Temp;Humidity;BMP_temperature;BMP_pressure;BME280_temperature;BME280_humidity;BME280_pressure;Samples;Min_cycle;Max_cycle;Signal;HPM_P1;HPM_P2
2023/06/24 00:00:23;;;;;;;10.85;7.90;;;;;;;18.61;100.00;101210.78;4937687;29;20044;-73
2023/06/24 00:02:51;;;;;;;10.60;7.93;;;;;;;18.64;100.00;101221.31;4935009;28;20047;-71
2023/06/24 00:05:19;;;;;;;11.30;8.20;;;;;;;18.59;100.00;101223.44;4942208;28;20055;-73
2023/06/24 00:07:47;;;;;;;10.80;7.55;;;;;;;18.54;100.00;101226.44;4935355;28;20043;-74
2023/06/24 00:10:14;;;;;;;9.93;8.00;;;;;;;18.52;100.00;101222.13;4950177;28;20133;-72
2023/06/24 00:13:03;;;;;;;9.23;7.72;;;;;;;18.45;100.00;101227.03;4930522;28;20409;-73
2023/06/24 00:15:30;;;;;;;8.85;7.55;;;;;;;18.43;100.00;101241.50;4940685;28;20047;-73
2023/06/24 00:18:05;;;;;;;10.43;8.02;;;;;;;18.36;100.00;101232.16;4947412;28;20110;-73
2023/06/24 00:20:32;;;;;;;8.27;6.80;;;;;;;18.30;100.00;101235.22;4945723;28;20054;-74
2023/06/24 00:23:00;;;;;;;9.70;7.60;;;;;;;18.32;100.00;101235.97;4946676;28;20047;-74
2023/06/24 00:25:27;;;;;;;10.70;7.68;;;;;;;18.29;100.00;101229.00;4944489;28;20047;-73
2023/06/24 00:27:55;;;;;;;9.30;7.18;;;;;;;18.22;100.00;101236.59;4936985;28;20083;-74
2023/06/24 00:30:23;;;;;;;10.85;7.40;;;;;;;18.15;100.00;101221.00;4943783;28;20059;-74
2023/06/24 00:32:49;;;;;;;9.32;7.47;;;;;;;18.18;100.00;101242.25;4930181;28;20047;-74
2023/06/24 00:35:18;;;;;;;10.05;8.18;;;;;;;18.13;100.00;101239.00;4923486;29;20076;-74
2023/06/24 00:37:46;;;;;;;9.98;7.78;;;;;;;18.07;100.00;101236.75;4947608;28;20047;-73
2023/06/24 00:40:16;;;;;;;10.48;8.05;;;;;;;17.97;100.00;101227.56;4920895;28;20449;-73
2023/06/24 00:42:45;;;;;;;9.25;7.78;;;;;;;17.91;100.00;101228.84;4934012;28;20055;-73
2023/06/24 00:45:12;;;;;;;11.10;7.68;;;;;;;17.95;100.00;101232.16;4926227;28;20043;-72
2023/06/24 00:47:39;;;;;;;9.15;7.75;;;;;;;17.90;100.00;101232.47;4929626;28;20058;-73
2023/06/24 00:50:07;;;;;;;9.93;7.55;;;;;;;17.86;100.00;101245.19;4946323;28;20050;-74
2023/06/24 00:52:36;;;;;;;8.88;7.70;;;;;;;17.83;100.00;101240.03;4929867;29;20521;-73
2023/06/24 00:55:04;;;;;;;10.90;8.10;;;;;;;17.79;100.00;101240.31;4924935;28;20055;-73
2023/06/24 00:57:31;;;;;;;10.43;8.07;;;;;;;17.69;100.00;101229.31;4948408;28;20577;-73
2023/06/24 01:00:00;;;;;;;9.18;8.02;;;;;;;17.70;100.00;101236.41;4950549;28;20424;-72
2023/06/24 01:02:27;;;;;;;10.52;7.70;;;;;;;17.65;100.00;101230.47;4929441;28;20054;-73
2023/06/24 01:04:56;;;;;;;10.05;8.20;;;;;;;17.61;100.00;101228.06;4942095;28;20511;-74
2023/06/24 01:07:24;;;;;;;10.25;7.70;;;;;;;17.61;100.00;101233.44;4935807;28;20054;-74
2023/06/24 01:09:51;;;;;;;8.32;7.32;;;;;;;17.59;100.00;101236.19;4929437;29;20048;-74
2023/06/24 01:12:17;;;;;;;9.27;7.68;;;;;;;17.59;100.00;101235.34;4930043;28;20106;-73
2023/06/24 01:14:44;;;;;;;11.30;7.82;;;;;;;17.56;100.00;101236.38;4937482;28;20396;-74
2023/06/24 01:17:23;;;;;;;8.77;7.07;;;;;;;17.59;100.00;101241.56;4930256;29;20106;-72
2023/06/24 01:20:19;;;;;;;8.98;7.10;;;;;;;17.58;100.00;101225.56;4947612;28;20047;-73
2023/06/24 01:23:22;;;;;;;10.10;7.35;;;;;;;17.52;100.00;101235.72;4934761;29;20059;-73
2023/06/24 01:26:03;;;;;;;9.98;7.70;;;;;;;17.46;100.00;101236.13;4926079;29;20046;-73
2023/06/24 01:28:50;;;;;;;8.35;7.20;;;;;;;17.38;100.00;101242.88;4931719;29;20110;-74
2023/06/24 01:31:25;;;;;;;9.52;7.82;;;;;;;17.30;100.00;101250.53;4941648;28;20051;-73
2023/06/24 01:34:24;;;;;;;10.70;7.93;;;;;;;17.24;100.00;101248.22;4947906;28;20473;-72
2023/06/24 01:37:05;;;;;;;10.45;7.78;;;;;;;17.18;100.00;101262.81;4926830;29;20051;-74
2023/06/24 01:39:37;;;;;;;9.82;7.85;;;;;;;17.13;100.00;101254.25;4949691;28;20055;-73
2023/06/24 01:42:09;;;;;;;9.38;7.13;;;;;;;17.03;100.00;101245.88;4930320;29;20135;-72
2023/06/24 01:44:40;;;;;;;8.85;7.18;;;;;;;16.98;100.00;101248.00;4947598;28;20057;-72
2023/06/24 01:47:09;;;;;;;7.78;6.95;;;;;;;16.99;100.00;101256.88;4944452;28;20051;-73
2023/06/24 01:49:40;;;;;;;8.45;7.25;;;;;;;16.93;100.00;101250.09;4951812;28;20474;-73
2023/06/24 01:52:09;;;;;;;8.68;7.22;;;;;;;16.88;100.00;101249.47;4948495;28;20067;-73
2023/06/24 01:54:39;;;;;;;9.32;7.30;;;;;;;16.83;100.00;101247.09;4935603;28;20080;-73
2023/06/24 01:57:11;;;;;;;8.45;7.55;;;;;;;16.86;100.00;101251.38;4927671;28;20134;-75
2023/06/24 01:59:42;;;;;;;10.50;7.90;;;;;;;16.77;100.00;101238.56;4917465;29;20046;-73
2023/06/24 02:02:10;;;;;;;9.48;7.25;;;;;;;16.85;100.00;101249.66;4937917;28;20065;-74
2023/06/24 02:04:38;;;;;;;8.40;7.50;;;;;;;16.79;100.00;101247.38;4932131;28;20051;-73
2023/06/24 02:07:08;;;;;;;8.27;7.07;;;;;;;16.78;100.00;101253.66;4947493;28;20151;-73
2023/06/24 02:09:35;;;;;;;10.85;7.35;;;;;;;16.82;100.00;101245.38;4932460;29;20055;-76
2023/06/24 02:12:03;;;;;;;8.52;7.63;;;;;;;16.92;100.00;101256.38;4950180;28;20051;-73
2023/06/24 02:14:31;;;;;;;8.60;7.25;;;;;;;16.97;100.00;101262.31;4951483;28;20043;-75
2023/06/24 02:17:00;;;;;;;9.68;7.78;;;;;;;16.98;100.00;101261.38;4939073;28;20061;-73
2023/06/24 02:19:29;;;;;;;8.70;7.60;;;;;;;17.00;100.00;101251.41;4951721;28;20043;-74
2023/06/24 02:21:59;;;;;;;9.23;7.70;;;;;;;16.98;100.00;101249.81;4946303;28;20054;-73
2023/06/24 02:24:28;;;;;;;11.77;8.05;;;;;;;16.82;100.00;101239.16;4928051;28;20055;-77
2023/06/24 02:26:58;;;;;;;9.33;7.93;;;;;;;16.82;100.00;101241.84;4940104;28;20043;-75
2023/06/24 02:29:29;;;;;;;10.60;8.27;;;;;;;16.78;100.00;101238.47;4932499;28;20482;-73
2023/06/24 02:31:56;;;;;;;8.93;7.63;;;;;;;16.80;100.00;101243.75;4949672;28;20049;-72
2023/06/24 02:34:24;;;;;;;10.90;7.63;;;;;;;16.85;100.00;101249.66;4950805;28;20054;-73
2023/06/24 02:36:54;;;;;;;8.85;7.60;;;;;;;16.84;100.00;101243.44;4939360;28;20062;-74
2023/06/24 02:39:22;;;;;;;8.63;7.55;;;;;;;16.89;100.00;101248.53;4947699;28;20054;-73
2023/06/24 02:41:49;;;;;;;9.48;8.00;;;;;;;16.70;100.00;101232.72;4939907;28;20575;-73
2023/06/24 02:44:16;;;;;;;10.45;8.32;;;;;;;16.65;100.00;101244.66;4953161;28;20051;-73
2023/06/24 02:46:46;;;;;;;9.52;8.07;;;;;;;16.57;100.00;101246.84;4950324;28;20514;-73
2023/06/24 02:49:17;;;;;;;9.15;7.47;;;;;;;16.47;100.00;101247.41;4928497;28;20077;-72
2023/06/24 02:51:45;;;;;;;10.18;7.35;;;;;;;16.47;100.00;101243.88;4935785;29;20418;-73
2023/06/24 02:54:12;;;;;;;9.80;7.97;;;;;;;16.49;100.00;101241.97;4949923;28;20078;-74
2023/06/24 02:56:41;;;;;;;11.38;7.50;;;;;;;16.56;100.00;101251.34;4946103;28;20106;-73
2023/06/24 02:59:09;;;;;;;8.75;7.75;;;;;;;16.48;100.00;101245.59;4935054;28;20094;-72
2023/06/24 03:01:39;;;;;;;10.77;8.07;;;;;;;16.51;100.00;101260.59;4952334;28;20114;-73
2023/06/24 03:04:08;;;;;;;10.48;8.35;;;;;;;16.47;100.00;101250.09;4956725;28;20050;-73
2023/06/24 03:06:36;;;;;;;9.48;7.43;;;;;;;16.55;100.00;101248.75;4933721;29;20043;-73
2023/06/24 03:09:03;;;;;;;10.90;8.10;;;;;;;16.57;100.00;101252.22;4916870;28;20099;-71
2023/06/24 03:11:30;;;;;;;9.38;7.68;;;;;;;16.51;100.00;101248.09;4951877;28;20461;-73
2023/06/24 03:13:56;;;;;;;8.95;7.68;;;;;;;16.43;100.00;101251.19;4948169;28;20599;-73
2023/06/24 03:16:23;;;;;;;11.65;8.10;;;;;;;16.42;100.00;101246.81;4928855;29;20071;-72
2023/06/24 03:18:50;;;;;;;7.97;7.07;;;;;;;16.48;100.00;101257.16;4928580;29;20616;-72
2023/06/24 03:21:19;;;;;;;7.72;6.90;;;;;;;16.52;100.00;101252.50;4930640;28;20130;-72
2023/06/24 03:23:46;;;;;;;10.02;7.85;;;;;;;16.60;100.00;101249.34;4945612;28;20058;-72
2023/06/24 03:26:12;;;;;;;8.77;7.88;;;;;;;16.67;100.00;101246.28;4936526;29;20518;-73
2023/06/24 03:28:41;;;;;;;8.60;7.70;;;;;;;16.68;100.00;101258.72;4933399;29;20043;-73
2023/06/24 03:31:07;;;;;;;8.80;7.10;;;;;;;16.63;100.00;101246.53;4949632;28;20135;-73
2023/06/24 03:33:34;;;;;;;10.77;8.38;;;;;;;16.60;100.00;101252.91;4930399;29;20507;-72
2023/06/24 03:36:01;;;;;;;9.60;8.52;;;;;;;16.51;100.00;101255.25;4927908;28;20066;-73
2023/06/24 03:38:28;;;;;;;10.20;7.97;;;;;;;16.40;100.00;101258.53;4954192;28;20052;-73
2023/06/24 03:40:55;;;;;;;9.95;8.88;;;;;;;16.42;100.00;101260.16;4953777;28;20039;-73
2023/06/24 03:43:22;;;;;;;11.35;8.15;;;;;;;16.43;100.00;101269.91;4951600;28;20513;-73
2023/06/24 03:45:49;;;;;;;10.93;9.23;;;;;;;16.33;100.00;101263.38;4946916;28;20118;-73
2023/06/24 03:48:19;;;;;;;9.13;8.23;;;;;;;16.36;100.00;101271.22;4931255;29;20043;-73
2023/06/24 03:50:47;;;;;;;11.02;8.77;;;;;;;16.29;100.00;101253.81;4949636;28;20043;-72
2023/06/24 03:53:13;;;;;;;9.35;8.10;;;;;;;16.33;100.00;101252.69;4946346;28;20055;-73
2023/06/24 03:55:40;;;;;;;9.98;8.30;;;;;;;16.49;100.00;101264.22;4944781;28;20043;-75
2023/06/24 03:58:08;;;;;;;13.38;9.30;;;;;;;16.60;100.00;101265.41;4950861;28;20070;-74
2023/06/24 04:00:39;;;;;;;9.23;7.72;;;;;;;16.64;100.00;101261.66;4953995;28;20443;-73
2023/06/24 04:03:07;;;;;;;11.75;8.52;;;;;;;16.61;100.00;101253.75;4942421;28;20134;-74
2023/06/24 04:05:34;;;;;;;9.43;7.95;;;;;;;16.65;100.00;101274.06;4958993;28;20047;-72
2023/06/24 04:08:03;;;;;;;10.88;9.20;;;;;;;16.61;100.00;101277.81;4931613;28;20402;-71
2023/06/24 04:10:30;;;;;;;11.63;9.05;;;;;;;16.47;100.00;101263.44;4951499;28;20126;-73
2023/06/24 04:12:56;;;;;;;13.02;9.10;;;;;;;16.45;100.00;101270.69;4949453;28;20150;-74
2023/06/24 04:15:23;;;;;;;11.35;9.13;;;;;;;16.53;100.00;101280.94;4944995;28;20075;-73
2023/06/24 04:17:50;;;;;;;12.07;8.95;;;;;;;16.59;100.00;101279.72;4929138;28;20066;-73
2023/06/24 04:20:17;;;;;;;12.65;8.80;;;;;;;16.53;100.00;101280.94;4933446;28;20047;-73
2023/06/24 04:22:43;;;;;;;12.02;9.85;;;;;;;16.48;100.00;101278.53;4931009;29;20294;-72
2023/06/24 04:25:11;;;;;;;10.82;8.88;;;;;;;16.54;100.00;101287.13;4937813;28;20469;-73
2023/06/24 04:27:38;;;;;;;10.05;8.45;;;;;;;16.46;100.00;101258.19;4942630;28;20046;-73
2023/06/24 04:30:05;;;;;;;10.48;9.02;;;;;;;16.65;100.00;101269.59;4932630;28;21503;-72
2023/06/24 04:32:32;;;;;;;9.90;8.60;;;;;;;16.75;100.00;101285.94;4932812;28;20138;-72
2023/06/24 04:35:00;;;;;;;10.63;8.77;;;;;;;16.80;100.00;101294.56;4943245;28;20059;-73
2023/06/24 04:37:28;;;;;;;9.88;8.68;;;;;;;16.79;100.00;101284.81;4943061;28;20517;-72
2023/06/24 04:39:58;;;;;;;9.15;8.20;;;;;;;16.80;100.00;101281.19;4933185;29;20074;-75
2023/06/24 04:42:27;;;;;;;12.35;8.98;;;;;;;16.89;100.00;101294.00;4925653;28;20054;-74
2023/06/24 04:44:53;;;;;;;11.32;9.30;;;;;;;16.99;100.00;101292.53;4935255;28;20406;-74
2023/06/24 04:47:20;;;;;;;11.80;9.10;;;;;;;16.99;100.00;101287.19;4930151;28;20047;-74
2023/06/24 04:49:48;;;;;;;9.85;8.55;;;;;;;17.05;100.00;101289.47;4931816;29;20048;-73
2023/06/24 04:52:15;;;;;;;10.75;8.15;;;;;;;17.16;100.00;101284.34;4949081;28;20058;-73
2023/06/24 04:54:43;;;;;;;13.55;8.80;;;;;;;17.24;100.00;101283.03;4943801;28;20059;-74
2023/06/24 04:57:29;;;;;;;10.43;8.60;;;;;;;17.36;100.00;101293.84;4928768;29;20142;-73
2023/06/24 04:59:57;;;;;;;10.27;8.70;;;;;;;17.38;100.00;101283.03;4934443;28;20115;-73
2023/06/24 05:02:24;;;;;;;9.68;8.13;;;;;;;17.47;100.00;101294.03;4950665;28;20113;-74
2023/06/24 05:04:52;;;;;;;9.95;8.43;;;;;;;17.63;100.00;101299.31;4930186;29;20540;-73
2023/06/24 05:07:19;;;;;;;9.35;8.38;;;;;;;17.67;100.00;101287.50;4944860;28;20506;-73
2023/06/24 05:09:47;;;;;;;10.68;8.55;;;;;;;17.84;100.00;101302.50;4957316;28;20065;-75
2023/06/24 05:12:14;;;;;;;9.63;8.63;;;;;;;17.88;100.00;101291.50;4952216;28;20102;-74
2023/06/24 05:14:53;;;;;;;11.40;9.35;;;;;;;18.02;100.00;101304.03;4930746;28;20079;-75
2023/06/24 05:17:22;;;;;;;10.07;8.60;;;;;;;18.06;100.00;101315.44;4927963;28;20086;-73
2023/06/24 05:19:48;;;;;;;9.75;8.75;;;;;;;18.05;100.00;101297.63;4928818;28;20051;-73
2023/06/24 05:22:18;;;;;;;10.50;9.25;;;;;;;18.10;100.00;101298.19;4946092;28;20062;-73
2023/06/24 05:24:45;;;;;;;10.52;8.38;;;;;;;18.27;100.00;101316.72;4951902;28;20044;-74
2023/06/24 05:27:12;;;;;;;10.32;8.85;;;;;;;18.36;100.00;101312.59;4943556;28;20053;-73
2023/06/24 05:29:39;;;;;;;10.13;8.90;;;;;;;18.38;100.00;101321.41;4938759;28;20694;-74
2023/06/24 05:32:08;;;;;;;10.73;9.48;;;;;;;18.41;100.00;101321.22;4947278;28;20051;-74
2023/06/24 05:34:36;;;;;;;10.30;8.52;;;;;;;18.45;100.00;101318.22;4926959;28;20046;-73
2023/06/24 05:37:03;;;;;;;9.85;8.23;;;;;;;18.43;100.00;101309.41;4930183;29;20107;-75
2023/06/24 05:39:31;;;;;;;11.82;9.10;;;;;;;18.58;100.00;101329.00;4953899;28;20464;-73
2023/06/24 05:41:58;;;;;;;10.90;8.48;;;;;;;18.64;100.00;101327.78;4949360;28;20058;-75
2023/06/24 05:44:25;;;;;;;10.38;9.18;;;;;;;18.71;100.00;101321.91;4950636;28;20058;-74
2023/06/24 05:46:51;;;;;;;14.45;9.65;;;;;;;18.79;100.00;101324.06;4946625;28;20134;-73
2023/06/24 05:49:18;;;;;;;11.65;9.27;;;;;;;18.97;100.00;101336.28;4925102;29;20075;-73
2023/06/24 05:51:45;;;;;;;11.38;8.73;;;;;;;19.05;100.00;101325.88;4934539;28;20039;-75
2023/06/24 05:54:13;;;;;;;10.10;9.00;;;;;;;18.88;100.00;101293.97;4934586;29;20060;-74
2023/06/24 05:56:40;;;;;;;9.88;8.02;;;;;;;19.11;100.00;101319.22;4931911;29;20070;-75
2023/06/24 05:59:07;;;;;;;9.65;8.63;;;;;;;19.17;100.00;101318.81;4934236;29;20094;-74
2023/06/24 06:01:34;;;;;;;9.35;7.90;;;;;;;19.10;100.00;101307.63;4933451;28;21518;-73
2023/06/24 06:04:01;;;;;;;10.05;8.57;;;;;;;19.22;100.00;101311.28;4936717;29;20055;-73
2023/06/24 06:06:29;;;;;;;10.10;8.05;;;;;;;19.28;100.00;101319.81;4932800;28;20051;-74
2023/06/24 06:08:56;;;;;;;8.75;7.88;;;;;;;19.43;100.00;101317.88;4951331;28;20078;-77
2023/06/24 06:11:23;;;;;;;9.90;8.38;;;;;;;19.69;100.00;101326.81;4953480;28;20043;-74
2023/06/24 06:13:57;;;;;;;13.50;8.70;;;;;;;19.78;100.00;101334.25;4933922;28;20051;-72
2023/06/24 06:16:24;;;;;;;11.88;8.43;;;;;;;19.90;100.00;101329.84;4929801;28;20591;-73
2023/06/24 06:18:50;;;;;;;9.77;8.38;;;;;;;20.20;100.00;101319.56;4943715;28;20043;-74
2023/06/24 06:21:17;;;;;;;9.80;7.60;;;;;;;20.59;100.00;101333.81;4948708;28;20055;-75
2023/06/24 06:23:45;;;;;;;10.15;7.72;;;;;;;20.90;100.00;101329.69;4952602;28;20053;-73
2023/06/24 06:26:12;;;;;;;10.40;8.13;;;;;;;21.46;100.00;101324.50;4951748;28;20043;-76
2023/06/24 06:28:39;;;;;;;9.77;8.13;;;;;;;21.92;95.74;101319.91;4933158;29;20051;-73
2023/06/24 06:31:05;;;;;;;9.00;7.72;;;;;;;22.42;89.59;101323.06;4935506;29;20067;-72
2023/06/24 06:33:32;;;;;;;9.00;7.88;;;;;;;22.78;88.80;101324.63;4960949;28;20056;-75
2023/06/24 06:35:59;;;;;;;11.45;7.82;;;;;;;22.94;86.25;101307.97;4936637;29;20078;-74
2023/06/24 06:38:27;;;;;;;7.63;6.65;;;;;;;23.15;83.66;101295.34;4949101;28;20047;-73
2023/06/24 06:40:54;;;;;;;9.75;7.43;;;;;;;23.52;80.54;101320.09;4933100;29;20049;-73
2023/06/24 06:43:21;;;;;;;7.78;6.70;;;;;;;23.77;78.07;101313.38;4954781;28;20131;-74
2023/06/24 06:45:48;;;;;;;11.07;7.18;;;;;;;24.06;78.46;101318.97;4923354;28;20047;-74
2023/06/24 06:48:15;;;;;;;8.10;7.07;;;;;;;24.25;71.90;101320.88;4951260;28;20055;-75
2023/06/24 06:50:45;;;;;;;8.18;7.28;;;;;;;24.20;73.73;101312.31;4940818;28;20050;-73
2023/06/24 06:53:20;;;;;;;8.82;6.80;;;;;;;24.07;76.13;101315.25;4955084;28;20174;-72
2023/06/24 06:55:46;;;;;;;8.80;7.20;;;;;;;24.21;76.56;101327.56;4940753;29;20063;-73
2023/06/24 06:58:15;;;;;;;9.00;6.88;;;;;;;24.06;75.22;101316.25;4949559;28;20473;-73
2023/06/24 07:00:41;;;;;;;12.55;10.55;;;;;;;24.28;74.37;101305.22;4932458;28;20047;-72
2023/06/24 07:03:09;;;;;;;9.35;6.82;;;;;;;24.74;69.09;101322.69;4935825;28;20046;-74
2023/06/24 07:05:36;;;;;;;7.20;6.43;;;;;;;;;;4950944;28;20070;-74
2023/06/24 07:08:05;;;;;;;8.55;7.07;;;;;;;25.16;62.90;101307.94;4933864;29;20051;-74
2023/06/24 07:10:34;;;;;;;9.13;7.20;;;;;;;25.26;62.03;101317.88;4963187;28;20039;-74
2023/06/24 07:13:00;;;;;;;8.82;7.05;;;;;;;24.93;72.24;101319.16;4949970;29;20417;-74
2023/06/24 07:15:27;;;;;;;8.45;6.70;;;;;;;24.76;67.58;101316.16;4960488;29;20058;-74
2023/06/24 07:17:54;;;;;;;8.25;6.63;;;;;;;24.96;66.84;101305.34;4942930;29;20123;-74
2023/06/24 07:20:22;;;;;;;8.95;6.72;;;;;;;25.28;61.76;101297.78;4941705;29;20043;-75
2023/06/24 07:22:48;;;;;;;9.20;6.78;;;;;;;25.51;59.42;101304.56;4955725;28;20047;-72
2023/06/24 07:25:16;;;;;;;9.32;7.40;;;;;;;25.67;60.08;101313.97;4952532;28;20055;-73
2023/06/24 07:27:43;;;;;;;8.18;7.15;;;;;;;25.74;60.28;101299.69;4928949;28;20057;-74
2023/06/24 07:30:11;;;;;;;7.85;7.05;;;;;;;25.80;56.71;101303.69;4953012;28;20106;-74
2023/06/24 07:32:38;;;;;;;8.88;7.18;;;;;;;25.95;56.43;101304.03;4954794;28;20039;-75
2023/06/24 07:35:07;;;;;;;6.88;6.15;;;;;;;26.12;56.73;101301.41;4950883;28;20043;-74
2023/06/24 07:37:35;;;;;;;9.90;7.05;;;;;;;26.17;55.70;101295.50;4915630;29;20058;-76
2023/06/24 07:40:03;;;;;;;11.05;7.65;;;;;;;26.31;54.39;101310.44;4936330;28;20047;-73
2023/06/24 07:42:30;;;;;;;8.93;7.57;;;;;;;26.38;55.47;101314.28;4926544;28;20705;-74
2023/06/24 07:44:57;;;;;;;9.80;8.18;;;;;;;26.49;55.74;101314.06;4949227;28;20091;-74
2023/06/24 07:47:24;;;;;;;7.97;7.18;;;;;;;26.38;60.63;101295.28;4928374;28;20538;-75
2023/06/24 07:49:53;;;;;;;10.07;7.70;;;;;;;25.76;59.64;101310.41;4938658;28;20117;-77
2023/06/24 07:52:20;;;;;;;7.80;7.00;;;;;;;25.36;64.32;101289.75;4941159;28;20530;-74
2023/06/24 07:54:46;;;;;;;9.32;6.95;;;;;;;25.53;62.19;101312.56;4947388;28;20058;-74
2023/06/24 07:57:13;;;;;;;8.68;7.03;;;;;;;25.59;63.48;101306.56;4941424;28;20079;-74
2023/06/24 07:59:40;;;;;;;7.28;6.57;;;;;;;25.89;62.33;101305.47;4941739;28;20108;-73
2023/06/24 08:02:06;;;;;;;8.65;7.40;;;;;;;25.98;58.96;101296.44;4921663;28;20150;-75
2023/06/24 08:04:34;;;;;;;11.65;7.00;;;;;;;25.86;60.10;101317.50;4919412;28;20130;-73
2023/06/24 08:07:03;;;;;;;7.57;6.78;;;;;;;26.19;59.21;101315.19;4942386;28;20047;-73
2023/06/24 08:09:30;;;;;;;9.30;6.85;;;;;;;26.28;55.24;101295.31;4940841;28;20121;-74
2023/06/24 08:11:56;;;;;;;9.15;6.72;;;;;;;26.53;55.54;101299.16;4942935;28;20062;-75
2023/06/24 08:14:23;;;;;;;9.40;7.65;;;;;;;26.57;53.09;101303.31;4948817;28;20857;-75
2023/06/24 08:16:50;;;;;;;12.65;8.05;;;;;;;25.95;54.71;101306.75;4943300;28;20522;-74
2023/06/24 08:19:20;;;;;;;13.35;7.95;;;;;;;25.71;56.45;101302.69;4930558;29;20051;-74
2023/06/24 08:21:46;;;;;;;10.20;7.38;;;;;;;25.64;59.53;101309.72;4934609;28;20047;-73
2023/06/24 08:24:14;;;;;;;8.30;7.50;;;;;;;25.84;57.32;101305.06;4952774;28;20135;-73
2023/06/24 08:26:41;;;;;;;11.65;8.40;;;;;;;25.48;56.34;101290.47;4934783;28;20509;-73
2023/06/24 08:29:09;;;;;;;9.55;7.80;;;;;;;25.33;57.98;101297.34;4946406;28;20050;-75
2023/06/24 08:31:37;;;;;;;10.15;7.80;;;;;;;25.28;58.00;101300.50;4941171;28;20055;-73
2023/06/24 08:34:06;;;;;;;8.75;6.55;;;;;;;25.78;57.64;101294.81;4957915;28;20111;-75
2023/06/24 08:36:37;;;;;;;9.02;7.05;;;;;;;26.23;53.66;101288.59;4955301;28;20051;-73
2023/06/24 08:39:03;;;;;;;10.13;6.82;;;;;;;26.48;52.20;101298.75;4931056;28;20119;-72
2023/06/24 08:41:30;;;;;;;6.72;5.97;;;;;;;26.79;49.34;101289.25;4929106;28;20086;-73
2023/06/24 08:44:01;;;;;;;9.52;6.38;;;;;;;27.06;48.80;101298.38;4950927;28;20043;-74
2023/06/24 08:46:30;;;;;;;8.32;6.60;;;;;;;27.09;47.95;101295.31;4942491;28;20054;-73
2023/06/24 08:49:09;;;;;;;8.73;6.90;;;;;;;27.05;47.45;101302.09;4943657;28;20145;-72
2023/06/24 08:51:40;;;;;;;;;;;;;;;26.88;47.52;101293.75;4947626;28;20059;-72
2023/06/24 08:54:10;;;;;;;7.80;5.57;;;;;;;27.06;46.44;101298.38;4948532;28;19922;-73
2023/06/24 08:56:40;;;;;;;8.77;6.20;;;;;;;27.14;47.69;101282.97;4928365;29;20098;-74
2023/06/24 08:59:23;;;;;;;7.50;5.93;;;;;;;27.01;47.40;101296.13;4948141;28;20216;-73
2023/06/24 09:01:51;;;;;;;8.15;5.63;;;;;;;26.58;46.47;101290.56;4934272;28;20055;-74
2023/06/24 09:04:18;;;;;;;7.15;5.82;;;;;;;26.18;48.15;101292.63;4950238;28;20050;-74
2023/06/24 09:06:45;;;;;;;6.72;6.03;;;;;;;25.92;48.68;101288.91;4944557;28;20051;-74
2023/06/24 09:09:22;;;;;;;8.18;6.13;;;;;;;25.68;49.43;101289.41;4934910;28;20047;-74
2023/06/24 09:11:59;;;;;;;8.18;6.22;;;;;;;25.63;49.32;101290.88;4931409;29;20042;-72
2023/06/24 09:14:27;;;;;;;6.68;5.90;;;;;;;25.67;49.83;101292.28;4945004;28;20047;-74
2023/06/24 09:17:09;;;;;;;7.75;6.15;;;;;;;25.71;47.92;101282.84;4946705;28;20051;-73
2023/06/24 09:19:36;;;;;;;7.72;5.63;;;;;;;25.74;48.42;101271.69;4907604;28;20437;-74
2023/06/24 09:22:04;;;;;;;8.50;5.97;;;;;;;26.03;48.29;101268.84;4928726;28;20047;-73
2023/06/24 09:24:33;;;;;;;6.28;5.53;;;;;;;26.36;47.35;101267.41;4948905;28;20132;-74
2023/06/24 09:27:00;;;;;;;7.15;6.25;;;;;;;26.50;47.70;101269.59;4930986;29;20668;-74
2023/06/24 09:29:28;;;;;;;7.72;5.93;;;;;;;26.45;47.52;101255.63;4923255;29;20053;-73
2023/06/24 09:31:59;;;;;;;8.80;6.57;;;;;;;26.27;47.98;101254.72;4922945;28;20046;-74
2023/06/24 09:34:28;;;;;;;7.18;5.90;;;;;;;26.28;47.46;101264.59;4950757;28;20043;-74
2023/06/24 09:36:57;;;;;;;7.82;6.28;;;;;;;26.32;48.54;101256.00;4943660;28;20134;-74
2023/06/24 09:39:29;;;;;;;7.43;5.93;;;;;;;26.16;48.20;101258.50;4941661;28;20055;-73
2023/06/24 09:41:59;;;;;;;8.48;5.50;;;;;;;25.94;48.75;101245.34;4934674;28;20106;-74
2023/06/24 09:44:29;;;;;;;7.20;6.50;;;;;;;26.10;47.91;101250.97;4933429;28;20577;-75
2023/06/24 09:46:59;;;;;;;8.77;6.65;;;;;;;26.31;49.02;101239.84;4929954;28;20049;-74
2023/06/24 09:49:33;;;;;;;10.15;6.57;;;;;;;26.35;47.64;101236.69;4927098;28;20047;-73
2023/06/24 09:52:03;;;;;;;9.05;5.82;;;;;;;26.37;45.77;101241.97;4936570;28;20135;-73
2023/06/24 09:54:30;;;;;;;8.68;6.72;;;;;;;26.26;45.98;101228.59;4936591;29;20047;-73
2023/06/24 09:57:01;;;;;;;;;;;;;;;26.32;46.02;101230.69;4934832;28;20047;-76
2023/06/24 09:59:30;;;;;;;6.80;5.90;;;;;;;26.56;45.98;101236.41;4941412;28;19929;-75
2023/06/24 10:01:58;;;;;;;6.28;5.68;;;;;;;26.55;45.26;101223.81;4931601;28;20063;-73
2023/06/24 10:04:27;;;;;;;10.82;5.82;;;;;;;26.44;44.32;101232.22;4948894;28;20505;-74
2023/06/24 10:06:55;;;;;;;6.57;5.70;;;;;;;26.58;44.03;101228.09;4947354;28;20058;-74
2023/06/24 10:09:23;;;;;;;9.05;6.97;;;;;;;26.54;43.48;101225.69;4924401;29;20043;-77
2023/06/24 10:11:53;;;;;;;7.47;5.95;;;;;;;26.26;44.22;101215.00;4932984;28;20053;-76
2023/06/24 10:14:20;;;;;;;7.07;5.97;;;;;;;26.08;45.71;101209.53;4952604;28;20047;-75
2023/06/24 10:16:47;;;;;;;7.47;5.97;;;;;;;26.02;45.35;101213.72;4947739;28;20216;-76
2023/06/24 10:19:21;;;;;;;6.10;5.57;;;;;;;25.96;46.18;101214.34;4937002;28;20133;-75
2023/06/24 10:21:59;;;;;;;6.03;5.38;;;;;;;26.15;45.35;101207.91;4925644;28;20233;-76
2023/06/24 10:24:39;;;;;;;6.50;5.50;;;;;;;26.39;44.68;101205.50;4951582;28;20442;-75
2023/06/24 10:27:21;;;;;;;6.40;5.78;;;;;;;26.39;43.67;101201.94;4950232;28;20541;-72
2023/06/24 10:29:52;;;;;;;9.63;5.93;;;;;;;26.22;43.98;101192.72;4932732;28;20054;-76
2023/06/24 10:32:23;;;;;;;8.48;6.03;;;;;;;26.14;44.52;101198.91;4954689;28;20491;-72
2023/06/24 10:34:55;;;;;;;6.75;5.60;;;;;;;26.16;44.52;101188.75;4953831;28;20047;-73
2023/06/24 10:37:32;;;;;;;6.38;5.55;;;;;;;26.06;45.31;101184.41;4943697;29;20079;-72
2023/06/24 10:40:02;;;;;;;5.50;4.82;;;;;;;26.15;44.19;101189.75;4930813;28;20079;-71
2023/06/24 10:42:37;;;;;;;7.13;5.55;;;;;;;26.17;44.34;101170.63;4936009;29;20047;-73
2023/06/24 10:45:09;;;;;;;5.43;4.90;;;;;;;26.21;43.33;101181.00;4946060;28;20047;-72
2023/06/24 10:47:38;;;;;;;6.40;5.57;;;;;;;26.17;43.63;101182.31;4947174;28;20473;-70
2023/06/24 10:50:07;;;;;;;8.30;5.47;;;;;;;26.02;44.21;101173.00;4920635;28;20062;-69
2023/06/24 10:52:47;;;;;;;6.07;5.13;;;;;;;25.94;44.30;101170.22;4949109;28;20043;-75
2023/06/24 10:55:19;;;;;;;7.05;5.15;;;;;;;25.93;44.22;101173.94;4933186;29;20123;-77
2023/06/24 10:57:47;;;;;;;7.03;5.28;;;;;;;26.23;43.59;101161.88;4941198;28;20569;-77
2023/06/24 11:00:15;;;;;;;7.30;5.95;;;;;;;26.24;43.15;101154.56;4944218;28;20054;-77
2023/06/24 11:02:44;;;;;;;5.50;4.47;;;;;;;26.53;43.41;101161.50;4945134;28;20035;-77
2023/06/24 11:05:11;;;;;;;5.20;4.70;;;;;;;26.98;42.59;101165.09;4928954;28;20098;-75
2023/06/24 11:07:39;;;;;;;7.20;4.63;;;;;;;27.39;43.37;101156.16;4947465;28;20877;-77
2023/06/24 11:10:11;;;;;;;5.20;4.70;;;;;;;27.66;41.03;101159.72;4924420;29;20106;-77
2023/06/24 11:12:41;;;;;;;8.07;5.93;;;;;;;27.59;39.73;101144.03;4928391;29;20051;-76
2023/06/24 11:15:10;;;;;;;9.02;5.55;;;;;;;27.61;40.14;101134.84;4928985;28;20061;-76
2023/06/24 11:17:39;;;;;;;8.60;5.30;;;;;;;27.82;39.21;101144.31;4944790;28;20106;-75
2023/06/24 11:20:11;;;;;;;5.72;4.90;;;;;;;27.93;39.26;101151.28;4934274;28;20141;-76
2023/06/24 11:22:43;;;;;;;7.45;5.38;;;;;;;28.10;38.88;101135.84;4935808;28;20058;-75
2023/06/24 11:25:24;;;;;;;5.05;4.65;;;;;;;28.11;38.90;101138.41;4946238;28;20094;-75
2023/06/24 11:27:54;;;;;;;7.38;5.03;;;;;;;27.83;38.76;101137.84;4937102;28;20051;-76